createdAt,value
2019-03-06T00:01:56.028Z,100450.30
2019-03-06T00:04:25.559Z,100448.57
2019-03-06T00:06:55.168Z,100447.39
2019-03-06T00:09:24.705Z,100452.23
2019-03-06T00:11:54.161Z,100449.83
2019-03-06T00:14:23.661Z,100448.22
2019-03-06T00:16:53.124Z,100448.22
2019-03-06T00:19:22.679Z,100455.16
2019-03-06T00:21:52.240Z,100452.16
2019-03-06T00:24:21.737Z,100460.67
2019-03-06T00:26:51.276Z,100465.11
2019-03-06T00:29:21.129Z,100468.20
2019-03-06T00:31:50.735Z,100473.63
2019-03-06T00:34:20.310Z,100485.47
2019-03-06T00:36:49.759Z,100486.69
2019-03-06T00:39:19.410Z,100490.87
2019-03-06T00:41:51.421Z,100493.38
2019-03-06T00:44:20.870Z,100484.39
2019-03-06T00:46:50.381Z,100484.49
2019-03-06T00:49:19.933Z,100481.77
2019-03-06T00:51:49.409Z,100489.30
2019-03-06T00:54:19.044Z,100493.12
2019-03-06T00:56:48.661Z,100491.61
2019-03-06T00:59:18.107Z,100496.05
2019-03-06T01:01:47.711Z,100495.75
2019-03-06T01:04:17.434Z,100497.13
2019-03-06T01:06:47.150Z,100501.44
2019-03-06T01:09:16.726Z,100500.12
2019-03-06T01:11:46.241Z,100505.91
2019-03-06T01:14:15.778Z,100503.40
2019-03-06T01:16:45.435Z,100503.10
2019-03-06T01:19:14.985Z,100507.70
2019-03-06T01:21:44.527Z,100518.34
2019-03-06T01:24:13.994Z,100524.78
2019-03-06T01:26:43.510Z,100518.72
2019-03-06T01:29:13.094Z,100518.09
2019-03-06T01:31:42.544Z,100522.83
2019-03-06T01:34:22.790Z,100529.09
2019-03-06T01:37:09.797Z,100525.86
2019-03-06T01:40:04.062Z,100527.08
2019-03-06T01:42:52.421Z,100527.08
2019-03-06T01:45:22.051Z,100535.37
2019-03-06T01:47:51.592Z,100544.82
2019-03-06T01:50:21.151Z,100550.35
2019-03-06T01:52:50.674Z,100551.51
2019-03-06T01:55:20.192Z,100549.96
2019-03-06T01:57:49.645Z,100546.38
2019-03-06T02:00:19.845Z,100549.05
2019-03-06T02:02:49.325Z,100554.58
2019-03-06T02:05:19.196Z,100552.91
2019-03-06T02:07:48.798Z,100554.09
2019-03-06T02:10:18.807Z,100555.27
2019-03-06T02:12:48.390Z,100554.97
2019-03-06T02:15:18.381Z,100557.87
2019-03-06T02:17:47.985Z,100563.66
2019-03-06T02:20:17.876Z,100559.67
2019-03-06T02:22:47.433Z,100568.81
2019-03-06T02:25:17.445Z,100566.80
2019-03-06T02:27:47.071Z,100561.77
2019-03-06T02:30:19.173Z,100557.05
2019-03-06T02:32:48.634Z,100557.38
2019-03-06T02:35:18.197Z,100559.09
2019-03-06T02:37:47.713Z,100559.78
2019-03-06T02:40:17.314Z,100561.00
2019-03-06T02:42:46.771Z,100569.42
2019-03-06T02:45:17.026Z,100573.97
2019-03-06T02:47:46.568Z,100582.80
2019-03-06T02:50:16.134Z,100579.08
2019-03-06T02:52:45.706Z,100579.93
2019-03-06T02:55:15.792Z,100578.08
2019-03-06T02:57:53.999Z,100562.87
2019-03-06T03:00:54.479Z,100556.28
2019-03-06T03:03:48.836Z,100555.92
2019-03-06T03:06:23.691Z,100557.08
2019-03-06T03:08:53.188Z,100553.99
2019-03-06T03:11:22.745Z,100569.02
2019-03-06T03:13:52.262Z,100572.02
2019-03-06T03:16:21.790Z,100568.09
2019-03-06T03:18:51.235Z,100571.16
2019-03-06T03:21:20.782Z,100563.75
2019-03-06T03:23:50.255Z,100568.71
2019-03-06T03:26:19.742Z,100571.25
2019-03-06T03:28:49.256Z,100569.92
2019-03-06T03:31:18.780Z,100575.19
2019-03-06T03:33:48.238Z,100574.17
2019-03-06T03:36:17.752Z,100568.00
2019-03-06T03:38:47.230Z,100567.51
2019-03-06T03:41:16.725Z,100565.66
2019-03-06T03:43:46.245Z,100567.70
2019-03-06T03:46:15.730Z,100570.40
2019-03-06T03:48:45.196Z,100580.22
2019-03-06T03:51:14.723Z,100576.66
2019-03-06T03:53:44.185Z,100588.31
2019-03-06T03:56:13.719Z,100590.49
2019-03-06T03:58:43.241Z,100595.89
2019-03-06T04:01:12.717Z,100595.27
2019-03-06T04:03:42.193Z,100589.86
2019-03-06T04:06:11.819Z,100593.39
2019-03-06T04:08:41.280Z,100593.91
2019-03-06T04:11:10.789Z,100583.60
2019-03-06T04:13:40.334Z,100586.30
2019-03-06T04:16:09.815Z,100585.09
2019-03-06T04:18:39.377Z,100581.38
2019-03-06T04:21:08.985Z,100579.83
2019-03-06T04:23:38.455Z,100576.67
2019-03-06T04:26:08.065Z,100574.14
2019-03-06T04:28:37.548Z,100567.55
2019-03-06T04:31:07.006Z,100563.83
2019-03-06T04:33:36.546Z,100558.80
2019-03-06T04:36:06.012Z,100567.58
2019-03-06T04:38:35.439Z,100559.67
2019-03-06T04:41:04.998Z,100564.31
2019-03-06T04:43:34.468Z,100559.59
2019-03-06T04:46:03.942Z,100557.25
2019-03-06T04:48:33.406Z,100559.30
2019-03-06T04:51:02.882Z,100567.23
2019-03-06T04:53:32.391Z,100563.37
2019-03-06T04:56:01.866Z,100570.48
2019-03-06T04:58:31.401Z,100569.45
2019-03-06T05:01:00.944Z,100568.47
2019-03-06T05:03:30.432Z,100567.61
2019-03-06T05:05:59.867Z,100568.83
2019-03-06T05:08:29.475Z,100567.80
2019-03-06T05:10:58.935Z,100578.11
2019-03-06T05:13:30.790Z,100573.92
2019-03-06T05:16:00.246Z,100571.05
2019-03-06T05:18:36.951Z,100567.86
2019-03-06T05:21:06.442Z,100570.56
2019-03-06T05:23:35.949Z,100573.09
2019-03-06T05:26:05.473Z,100569.40
2019-03-06T05:28:34.924Z,100575.98
2019-03-06T05:31:04.370Z,100580.39
2019-03-06T05:33:33.877Z,100577.34
2019-03-06T05:36:40.659Z,100581.56
2019-03-06T05:39:11.987Z,100584.39
2019-03-06T05:41:41.604Z,100585.42
2019-03-06T05:44:11.054Z,100584.07
2019-03-06T05:46:40.623Z,100601.13
2019-03-06T05:49:10.401Z,100598.44
2019-03-06T05:51:39.835Z,100600.61
2019-03-06T05:54:09.382Z,100596.42
2019-03-06T05:56:38.839Z,100606.56
2019-03-06T05:59:08.312Z,100612.16
2019-03-06T06:01:37.937Z,100611.98
2019-03-06T06:04:07.403Z,100609.64
2019-03-06T06:06:36.850Z,100608.16
2019-03-06T06:09:07.422Z,100604.79
2019-03-06T06:11:36.870Z,100600.88
2019-03-06T06:14:06.344Z,100595.28
2019-03-06T06:16:35.879Z,100589.02
2019-03-06T06:19:05.529Z,100585.50
2019-03-06T06:21:53.598Z,100592.58
2019-03-06T06:24:25.575Z,100596.98
2019-03-06T06:26:55.022Z,100594.48
2019-03-06T06:29:24.571Z,100589.44
2019-03-06T06:31:54.051Z,100587.42
2019-03-06T06:34:23.527Z,100587.75
2019-03-06T06:36:53.061Z,100584.91
2019-03-06T06:39:22.695Z,100580.69
2019-03-06T06:41:52.162Z,100577.48
2019-03-06T06:44:21.733Z,100578.17
2019-03-06T06:46:51.230Z,100584.78
2019-03-06T06:49:20.722Z,100589.03
2019-03-06T06:52:18.662Z,100576.87
2019-03-06T06:55:22.612Z,100572.64
2019-03-06T06:58:41.855Z,100586.66
2019-03-06T07:02:15.927Z,100587.81
2019-03-06T07:05:32.349Z,100598.62
2019-03-06T07:08:39.458Z,100591.88
2019-03-06T07:11:18.808Z,100593.22
2019-03-06T07:14:13.374Z,100588.31
2019-03-06T07:16:58.780Z,100590.88
2019-03-06T07:19:50.290Z,100587.18
2019-03-06T07:22:51.062Z,100590.02
2019-03-06T07:25:48.838Z,100596.09
2019-03-06T07:28:49.509Z,100582.51
2019-03-06T07:31:53.050Z,100588.41
2019-03-06T07:34:44.053Z,100584.55
2019-03-06T07:37:28.143Z,100591.98
2019-03-06T07:39:54.206Z,100589.17
2019-03-06T07:42:48.409Z,100593.77
2019-03-06T07:46:05.780Z,100589.41
2019-03-06T07:49:05.417Z,100590.09
2019-03-06T07:51:40.919Z,100588.57
2019-03-06T07:54:38.105Z,100584.88
2019-03-06T07:57:39.039Z,100586.41
2019-03-06T08:00:16.802Z,100585.42
2019-03-06T08:03:25.841Z,100592.01
2019-03-06T08:05:55.350Z,100597.77
2019-03-06T08:08:24.830Z,100598.27
2019-03-06T08:10:55.412Z,100595.92
2019-03-06T08:13:47.260Z,100597.77
2019-03-06T08:16:25.752Z,100592.36
2019-03-06T08:19:12.947Z,100592.20
2019-03-06T08:22:00.091Z,100586.11
2019-03-06T08:24:36.024Z,100592.31
2019-03-06T08:27:05.746Z,100591.80
2019-03-06T08:29:35.188Z,100582.98
2019-03-06T08:32:23.824Z,100589.55
2019-03-06T08:34:53.345Z,100588.19
2019-03-06T08:37:22.861Z,100576.88
2019-03-06T08:39:52.474Z,100578.55
2019-03-06T08:42:22.879Z,100596.37
2019-03-06T08:44:52.470Z,100597.80
2019-03-06T08:47:40.951Z,100594.19
2019-03-06T08:50:25.254Z,100591.05
2019-03-06T08:53:12.043Z,100599.42
2019-03-06T08:56:06.485Z,100595.08
2019-03-06T08:58:53.815Z,100590.15
2019-03-06T09:01:45.424Z,100592.19
2019-03-06T09:04:38.769Z,100587.67
2019-03-06T09:07:36.437Z,100593.80
2019-03-06T09:10:38.431Z,100588.14
2019-03-06T09:13:25.238Z,100591.11
2019-03-06T09:16:25.480Z,100594.41
2019-03-06T09:19:22.682Z,100583.88
2019-03-06T09:22:14.173Z,100579.44
2019-03-06T09:24:59.431Z,100574.83
2019-03-06T09:27:51.057Z,100577.49
2019-03-06T09:30:37.795Z,100579.34
2019-03-06T09:33:14.420Z,100577.79
2019-03-06T09:36:11.597Z,100579.30
2019-03-06T09:38:47.202Z,100572.69
2019-03-06T09:41:35.671Z,100555.31
2019-03-06T09:44:35.960Z,100558.20
2019-03-06T09:47:17.771Z,100559.78
2019-03-06T09:50:04.686Z,100559.74
2019-03-06T09:52:57.314Z,100561.48
2019-03-06T09:55:54.895Z,100556.28
2019-03-06T09:58:46.318Z,100563.36
2019-03-06T10:01:50.242Z,100564.41
2019-03-06T10:04:47.598Z,100563.42
2019-03-06T10:07:33.165Z,100551.27
2019-03-06T10:10:30.812Z,100554.84
2019-03-06T10:13:09.000Z,100545.42
2019-03-06T10:15:44.657Z,100551.20
2019-03-06T10:18:19.552Z,100549.73
2019-03-06T10:20:49.029Z,100549.53
2019-03-06T10:23:18.637Z,100546.66
2019-03-06T10:25:48.249Z,100554.36
2019-03-06T10:28:27.326Z,100554.74
2019-03-06T10:30:48.977Z,100559.50
2019-03-06T10:33:18.453Z,100556.36
2019-03-06T10:35:47.951Z,100554.67
2019-03-06T10:38:17.473Z,100558.78
2019-03-06T10:40:47.128Z,100552.71
2019-03-06T10:43:16.675Z,100549.34
2019-03-06T10:45:46.197Z,100557.45
2019-03-06T10:48:15.648Z,100554.61
2019-03-06T10:50:45.136Z,100549.89
2019-03-06T10:53:14.674Z,100539.08
2019-03-06T10:55:44.245Z,100536.88
2019-03-06T10:58:13.678Z,100538.09
2019-03-06T11:00:53.620Z,100537.06
2019-03-06T11:03:31.826Z,100543.33
2019-03-06T11:06:01.333Z,100540.27
2019-03-06T11:08:30.854Z,100533.68
2019-03-06T11:11:00.317Z,100525.22
2019-03-06T11:13:29.948Z,100472.48
2019-03-06T11:15:59.641Z,100525.38
2019-03-06T11:18:29.094Z,100524.89
2019-03-06T11:20:58.745Z,100514.22
2019-03-06T11:23:28.250Z,100509.48
2019-03-06T11:25:57.766Z,100506.95
2019-03-06T11:28:27.280Z,100507.09
2019-03-06T11:30:57.538Z,100497.30
2019-03-06T11:33:28.013Z,100495.09
2019-03-06T11:35:58.732Z,100482.45
2019-03-06T11:38:29.027Z,100492.91
2019-03-06T11:40:58.943Z,100487.37
2019-03-06T11:43:28.735Z,100487.55
2019-03-06T11:45:58.325Z,100486.89
2019-03-06T11:48:28.334Z,100470.17
2019-03-06T11:50:57.998Z,100472.20
2019-03-06T11:53:27.474Z,100472.89
2019-03-06T11:55:57.052Z,100464.28
2019-03-06T11:58:26.798Z,100464.15
2019-03-06T12:00:56.523Z,100462.27
2019-03-06T12:03:26.728Z,100465.33
2019-03-06T12:05:57.236Z,100462.62
2019-03-06T12:08:26.781Z,100462.62
2019-03-06T12:10:56.259Z,100462.25
2019-03-06T12:13:25.891Z,100459.19
2019-03-06T12:15:55.496Z,100453.42
2019-03-06T12:18:25.877Z,100450.22
2019-03-06T12:20:55.823Z,100451.76
2019-03-06T12:23:25.512Z,100447.56
2019-03-06T12:25:55.082Z,100448.91
2019-03-06T12:28:24.841Z,100444.15
2019-03-06T12:30:54.516Z,100446.30
2019-03-06T12:33:26.192Z,100438.17
2019-03-06T12:35:55.856Z,100437.16
2019-03-06T12:38:25.620Z,100418.09
2019-03-06T12:40:55.110Z,100421.48
2019-03-06T12:43:24.903Z,100415.41
2019-03-06T12:46:24.847Z,100416.62
2019-03-06T12:49:04.215Z,100414.59
2019-03-06T12:51:34.989Z,100412.75
2019-03-06T12:54:04.923Z,100411.05
2019-03-06T12:56:34.576Z,100414.10
2019-03-06T12:59:04.791Z,100415.59
2019-03-06T13:01:34.243Z,100409.16
2019-03-06T13:04:04.231Z,100410.80
2019-03-06T13:06:33.734Z,100407.78
2019-03-06T13:09:06.449Z,100404.41
2019-03-06T13:11:35.897Z,100399.69
2019-03-06T13:14:05.461Z,100407.80
2019-03-06T13:16:34.922Z,100401.76
2019-03-06T13:19:04.567Z,100400.42
2019-03-06T13:21:34.011Z,100402.81
2019-03-06T13:24:03.601Z,100398.58
2019-03-06T13:26:33.265Z,100394.39
2019-03-06T13:29:02.718Z,100391.19
2019-03-06T13:31:32.264Z,100395.92
2019-03-06T13:34:19.875Z,100395.74
2019-03-06T13:36:49.410Z,100390.20
2019-03-06T13:39:18.867Z,100382.59
2019-03-06T13:41:48.356Z,100389.66
2019-03-06T13:44:19.077Z,100376.50
2019-03-06T13:46:51.252Z,100388.12
2019-03-06T13:49:20.726Z,100391.63
2019-03-06T13:51:50.305Z,100390.78
2019-03-06T13:54:19.849Z,100384.52
2019-03-06T13:56:51.733Z,100375.56
2019-03-06T13:59:20.884Z,100371.51
2019-03-06T14:01:50.484Z,100367.13
2019-03-06T14:04:19.938Z,100374.39
2019-03-06T14:06:49.438Z,100378.61
2019-03-06T14:09:19.026Z,100373.52
2019-03-06T14:11:48.702Z,100370.96
2019-03-06T14:14:18.290Z,100352.40
2019-03-06T14:16:47.958Z,100344.07
2019-03-06T14:19:17.436Z,100344.20
2019-03-06T14:21:47.283Z,100340.82
2019-03-06T14:24:16.878Z,100326.96
2019-03-06T14:26:46.717Z,100324.26
2019-03-06T14:29:16.664Z,100320.06
2019-03-06T14:31:46.196Z,100312.81
2019-03-06T14:34:15.709Z,100317.19
2019-03-06T14:36:46.498Z,100313.00
2019-03-06T14:39:30.720Z,100317.55
2019-03-06T14:42:00.989Z,100314.53
2019-03-06T14:44:30.622Z,100315.89
2019-03-06T14:47:00.151Z,100317.60
2019-03-06T14:49:30.500Z,100316.61
2019-03-06T14:52:07.136Z,100317.30
2019-03-06T14:54:31.997Z,100324.58
2019-03-06T14:57:01.489Z,100321.73
2019-03-06T14:59:31.024Z,100312.60
2019-03-06T15:02:00.510Z,100309.76
2019-03-06T15:04:30.140Z,100307.38
2019-03-06T15:07:00.126Z,100304.17
2019-03-06T15:09:29.938Z,100297.92
2019-03-06T15:11:59.423Z,100286.44
2019-03-06T15:14:35.706Z,100289.63
2019-03-06T15:17:00.235Z,100286.61
2019-03-06T15:19:29.894Z,100288.78
2019-03-06T15:21:59.822Z,100294.68
2019-03-06T15:24:29.293Z,100282.84
2019-03-06T15:26:59.083Z,100281.48
2019-03-06T15:29:28.596Z,100272.53
2019-03-06T15:31:58.329Z,100261.23
2019-03-06T15:34:27.836Z,100263.25
2019-03-06T15:36:57.406Z,100267.30
2019-03-06T15:39:42.743Z,100260.23
2019-03-06T15:42:11.846Z,100262.94
2019-03-06T15:44:41.499Z,100255.83
2019-03-06T15:47:11.427Z,100252.80
2019-03-06T15:49:40.896Z,100255.15
2019-03-06T15:52:12.364Z,100258.84
2019-03-06T15:54:41.922Z,100256.32
2019-03-06T15:57:11.647Z,100261.05
2019-03-06T15:59:41.685Z,100263.89
2019-03-06T16:02:11.612Z,100261.86
2019-03-06T16:04:41.277Z,100261.51
2019-03-06T16:07:10.789Z,100262.54
2019-03-06T16:09:40.698Z,100260.16
2019-03-06T16:12:12.215Z,100254.56
2019-03-06T16:14:41.671Z,100261.61
2019-03-06T16:17:11.225Z,100266.54
2019-03-06T16:19:40.786Z,100266.54
2019-03-06T16:22:10.717Z,100274.47
2019-03-06T16:24:40.288Z,100265.52
2019-03-06T16:27:09.846Z,100261.96
2019-03-06T16:29:39.436Z,100271.27
2019-03-06T16:32:09.027Z,100269.56
2019-03-06T16:34:38.622Z,100285.87
2019-03-06T16:37:08.422Z,100283.16
2019-03-06T16:39:37.930Z,100290.72
2019-03-06T16:42:07.718Z,100294.22
2019-03-06T16:44:37.352Z,100296.37
2019-03-06T16:47:07.174Z,100304.23
2019-03-06T16:49:36.728Z,100301.34
2019-03-06T16:52:06.259Z,100295.56
2019-03-06T16:54:35.855Z,100299.06
2019-03-06T16:57:05.544Z,100270.22
2019-03-06T16:59:35.016Z,100271.05
2019-03-06T17:02:05.361Z,100270.41
2019-03-06T17:04:35.094Z,100273.74
2019-03-06T17:07:04.929Z,100262.58
2019-03-06T17:09:34.670Z,100267.28
2019-03-06T17:12:04.914Z,100264.41
2019-03-06T17:14:34.610Z,100274.16
2019-03-06T17:17:04.445Z,100272.31
2019-03-06T17:19:34.999Z,100271.81
2019-03-06T17:22:04.658Z,100268.92
2019-03-06T17:24:34.146Z,100268.53
2019-03-06T17:27:03.765Z,100272.39
2019-03-06T17:29:33.283Z,100267.00
2019-03-06T17:32:02.828Z,100263.13
2019-03-06T17:34:32.382Z,100257.86
2019-03-06T17:37:03.172Z,100268.02
2019-03-06T17:39:32.706Z,100270.77
2019-03-06T17:42:02.300Z,100265.61
2019-03-06T17:44:31.855Z,100270.72
2019-03-06T17:47:01.455Z,100266.36
2019-03-06T17:49:31.073Z,100266.88
2019-03-06T17:52:00.667Z,100263.01
2019-03-06T17:54:30.799Z,100257.47
2019-03-06T17:57:00.471Z,100261.02
2019-03-06T17:59:30.336Z,100260.67
2019-03-06T18:02:00.006Z,100259.12
2019-03-06T18:04:30.721Z,100251.84
2019-03-06T18:07:00.262Z,100246.44
2019-03-06T18:09:29.966Z,100243.87
2019-03-06T18:11:59.481Z,100244.05
2019-03-06T18:14:29.169Z,100242.02
2019-03-06T18:16:58.670Z,100245.45
2019-03-06T18:19:28.205Z,100240.73
2019-03-06T18:21:58.685Z,100237.55
2019-03-06T18:24:29.490Z,100237.73
2019-03-06T18:26:59.463Z,100227.42
2019-03-06T18:29:29.136Z,100230.31
2019-03-06T18:31:58.712Z,100234.22
2019-03-06T18:34:28.823Z,100229.00
2019-03-06T18:36:58.493Z,100233.05
2019-03-06T18:39:28.825Z,100234.22
2019-03-06T18:41:58.666Z,100227.28
2019-03-06T18:44:28.423Z,100238.41
2019-03-06T18:46:57.921Z,100235.89
2019-03-06T18:49:27.499Z,100236.92
2019-03-06T18:51:57.161Z,100227.66
2019-03-06T18:54:28.024Z,100225.32
2019-03-06T18:56:57.962Z,100231.89
2019-03-06T18:59:27.579Z,100230.22
2019-03-06T19:01:57.572Z,100232.06
2019-03-06T19:04:27.210Z,100224.83
2019-03-06T19:06:56.855Z,100219.56
2019-03-06T19:09:26.926Z,100218.03
2019-03-06T19:11:56.510Z,100221.41
2019-03-06T19:14:26.123Z,100220.37
2019-03-06T19:16:55.737Z,100215.47
2019-03-06T19:19:25.329Z,100217.17
2019-03-06T19:21:54.951Z,100216.50
2019-03-06T19:24:24.696Z,100213.80
2019-03-06T19:26:54.341Z,100212.63
2019-03-06T19:29:23.992Z,100216.50
2019-03-06T19:31:53.534Z,100210.44
2019-03-06T19:34:23.174Z,100206.38
2019-03-06T19:36:52.788Z,100196.94
2019-03-06T19:39:22.493Z,100192.39
2019-03-06T19:41:52.077Z,100194.09
2019-03-06T19:44:21.687Z,100191.08
2019-03-06T19:46:51.304Z,100189.38
2019-03-06T19:49:20.867Z,100187.39
2019-03-06T19:51:51.662Z,100190.77
2019-03-06T19:54:24.866Z,100184.70
2019-03-06T19:56:55.994Z,100179.66
2019-03-06T19:59:25.618Z,100175.08
2019-03-06T20:01:55.283Z,100166.98
2019-03-06T20:04:25.150Z,100169.18
2019-03-06T20:06:54.927Z,100166.16
2019-03-06T20:09:29.585Z,100170.03
2019-03-06T20:12:09.319Z,100161.75
2019-03-06T20:14:38.952Z,100157.34
2019-03-06T20:17:08.731Z,100164.09
2019-03-06T20:19:38.650Z,100157.03
2019-03-06T20:22:08.285Z,100143.53
2019-03-06T20:24:37.798Z,100150.60
2019-03-06T20:27:07.389Z,100143.21
2019-03-06T20:29:37.254Z,100142.19
2019-03-06T20:32:06.837Z,100136.46
2019-03-06T20:34:36.517Z,100133.77
2019-03-06T20:37:11.799Z,100120.91
2019-03-06T20:39:41.486Z,100128.36
2019-03-06T20:42:11.161Z,100126.66
2019-03-06T20:44:41.268Z,100121.08
2019-03-06T20:47:11.288Z,100120.77
2019-03-06T20:49:44.124Z,100125.31
2019-03-06T20:52:13.756Z,100122.79
2019-03-06T20:54:43.435Z,100119.23
2019-03-06T20:57:13.047Z,100122.44
2019-03-06T20:59:43.379Z,100124.78
2019-03-06T21:02:13.290Z,100120.23
2019-03-06T21:04:43.391Z,100116.86
2019-03-06T21:07:13.204Z,100115.51
2019-03-06T21:09:42.801Z,100115.33
2019-03-06T21:12:12.460Z,100109.26
2019-03-06T21:14:42.175Z,100109.43
2019-03-06T21:17:23.204Z,100113.12
2019-03-06T21:19:52.830Z,100104.36
2019-03-06T21:22:22.574Z,100099.13
2019-03-06T21:25:01.711Z,100102.01
2019-03-06T21:27:53.200Z,100103.22
2019-03-06T21:30:35.675Z,100100.02
2019-03-06T21:33:05.934Z,100105.06
2019-03-06T21:38:49.042Z,100099.52
2019-03-06T21:41:18.756Z,100102.05
2019-03-06T21:43:48.328Z,100094.30
2019-03-06T21:46:52.525Z,100090.59
2019-03-06T21:49:22.523Z,100085.52
2019-03-06T21:51:59.613Z,100092.13
2019-03-06T21:54:29.360Z,100089.59
2019-03-06T21:57:23.409Z,100074.75
2019-03-06T21:59:48.907Z,100073.89
2019-03-06T22:02:31.998Z,100074.72
2019-03-06T22:05:01.970Z,100069.81
2019-03-06T22:07:31.553Z,100067.12
2019-03-06T22:10:01.774Z,100061.89
2019-03-06T22:12:31.541Z,100061.22
2019-03-06T22:15:05.694Z,100060.52
2019-03-06T22:17:34.971Z,100054.45
2019-03-06T22:20:05.086Z,100047.37
2019-03-06T22:22:34.807Z,100054.77
2019-03-06T22:25:05.072Z,100045.00
2019-03-06T22:27:34.826Z,100044.50
2019-03-06T22:30:04.890Z,100040.59
2019-03-06T22:32:34.504Z,100034.03
2019-03-06T22:35:04.349Z,100034.88
2019-03-06T22:37:33.957Z,100026.78
2019-03-06T22:40:03.684Z,100027.10
2019-03-06T22:42:33.960Z,100024.75
2019-03-06T22:45:03.740Z,100018.33
2019-03-06T22:47:33.312Z,100012.73
2019-03-06T22:50:02.800Z,100013.06
2019-03-06T22:52:32.313Z,100014.23
2019-03-06T22:55:02.161Z,100008.98
2019-03-06T22:57:31.693Z,100007.28
2019-03-06T23:00:01.181Z,99998.16
2019-03-06T23:02:31.314Z,99996.78
2019-03-06T23:05:00.792Z,99988.69
2019-03-06T23:07:30.350Z,99983.47
2019-03-06T23:10:00.252Z,99978.45
2019-03-06T23:12:30.085Z,99974.91
2019-03-06T23:14:59.616Z,99974.73
2019-03-06T23:17:29.774Z,99968.48
2019-03-06T23:19:59.201Z,99960.56
2019-03-06T23:22:28.812Z,99958.05
2019-03-06T23:24:58.547Z,99951.15
2019-03-06T23:27:28.936Z,99944.75
2019-03-06T23:29:58.508Z,99942.22
2019-03-06T23:32:28.043Z,99939.70
2019-03-06T23:34:57.508Z,99931.77
2019-03-06T23:37:27.091Z,99925.70
2019-03-06T23:39:56.558Z,99922.14
2019-03-06T23:42:26.005Z,99939.37
2019-03-06T23:44:55.554Z,99935.32
2019-03-06T23:47:26.147Z,99914.73
2019-03-06T23:49:55.594Z,99909.02
2019-03-06T23:52:29.921Z,99899.22
2019-03-06T23:54:59.393Z,99894.31
2019-03-06T23:57:29.048Z,99890.62
2019-03-06T23:59:58.539Z,99877.45
